createdAt,value
2019-04-22T00:00:02.884Z,48.00
2019-04-22T00:02:42.282Z,48.30
2019-04-22T00:05:16.581Z,48.40
2019-04-22T00:08:01.545Z,48.00
2019-04-22T00:10:43.582Z,47.90
2019-04-22T00:13:12.635Z,48.50
2019-04-22T00:15:37.043Z,48.80
2019-04-22T00:20:51.813Z,49.00
2019-04-22T00:23:23.499Z,49.00
2019-04-22T00:25:55.796Z,49.00
2019-04-22T00:28:30.787Z,49.30
2019-04-22T00:31:05.050Z,49.30
2019-04-22T00:33:35.407Z,49.50
2019-04-22T00:36:14.990Z,49.70
2019-04-22T00:38:44.238Z,49.60
2019-04-22T00:41:15.229Z,49.80
2019-04-22T00:43:48.776Z,50.00
2019-04-22T00:46:18.860Z,50.10
2019-04-22T00:49:31.621Z,50.00
2019-04-22T00:51:22.914Z,50.00
2019-04-22T00:53:57.514Z,50.20
2019-04-22T00:56:22.105Z,50.00
2019-04-22T00:58:50.338Z,49.80
2019-04-22T01:01:31.957Z,50.30
2019-04-22T01:04:15.007Z,50.50
2019-04-22T01:06:35.250Z,50.50
2019-04-22T01:09:28.176Z,50.60
2019-04-22T01:11:37.586Z,50.60
2019-04-22T01:14:09.059Z,50.40
2019-04-22T01:16:43.027Z,50.50
2019-04-22T01:19:12.311Z,50.50
2019-04-22T01:21:45.153Z,50.50
2019-04-22T01:24:16.851Z,50.50
2019-04-22T01:26:47.675Z,50.50
2019-04-22T01:29:12.642Z,50.60
2019-04-22T01:31:34.316Z,50.60
2019-04-22T01:34:10.086Z,50.90
2019-04-22T01:36:51.614Z,50.30
2019-04-22T01:39:25.088Z,50.20
2019-04-22T01:42:04.639Z,50.70
2019-04-22T01:44:35.760Z,51.20
2019-04-22T01:47:00.394Z,51.30
2019-04-22T01:52:07.764Z,51.30
2019-04-22T01:54:35.690Z,51.50
2019-04-22T01:56:58.672Z,51.20
2019-04-22T01:59:25.893Z,51.30
2019-04-22T02:02:02.903Z,51.10
2019-04-22T02:04:36.821Z,50.90
2019-04-22T02:09:39.810Z,51.30
2019-04-22T02:12:11.585Z,51.20
2019-04-22T02:14:39.497Z,51.40
2019-04-22T02:17:10.795Z,51.40
2019-04-22T02:19:37.381Z,51.40
2019-04-22T02:22:11.629Z,51.60
2019-04-22T02:24:51.072Z,51.70
2019-04-22T02:29:43.208Z,51.30
2019-04-22T02:32:19.606Z,51.50
2019-04-22T02:35:02.202Z,51.40
2019-04-22T02:39:50.412Z,51.20
2019-04-22T02:44:48.628Z,52.10
2019-04-22T02:49:47.087Z,53.30
2019-04-22T02:54:58.532Z,54.30
2019-04-22T02:59:56.797Z,55.40
2019-04-22T03:04:55.621Z,55.60
2019-04-22T03:07:18.708Z,56.20
2019-04-22T03:09:55.111Z,56.80
2019-04-22T03:14:48.246Z,56.40
2019-04-22T03:22:25.911Z,57.60
2019-04-22T03:27:29.904Z,57.60
2019-04-22T03:47:52.899Z,58.90
2019-04-22T03:55:22.941Z,60.00
2019-04-22T04:00:35.695Z,61.30
2019-04-22T04:02:55.974Z,61.50
2019-04-22T04:05:33.538Z,61.60
2019-04-22T04:10:35.331Z,62.00
2019-04-22T04:12:58.182Z,62.50
2019-04-22T04:15:23.706Z,62.50
2019-04-22T04:20:28.688Z,62.50
2019-04-22T04:32:59.108Z,63.20
2019-04-22T04:36:03.395Z,62.70
2019-04-22T04:37:56.004Z,62.40
2019-04-22T04:40:31.523Z,63.10
2019-04-22T04:45:41.007Z,61.20
2019-04-22T04:48:21.133Z,59.10
2019-04-22T04:50:38.287Z,62.00
2019-04-22T04:53:20.291Z,63.00
2019-04-22T04:55:53.921Z,62.50
2019-04-22T04:58:36.886Z,62.20
2019-04-22T05:01:00.602Z,62.40
2019-04-22T05:03:32.810Z,62.20
2019-04-22T05:05:57.032Z,61.60
2019-04-22T05:08:39.155Z,59.90
2019-04-22T05:11:00.560Z,59.90
2019-04-22T05:13:35.141Z,58.30
2019-04-22T05:16:10.640Z,58.00
2019-04-22T05:21:14.646Z,55.10
2019-04-22T05:23:32.446Z,54.20
2019-04-22T05:25:57.427Z,53.10
2019-04-22T05:28:23.969Z,52.50
2019-04-22T05:30:57.182Z,51.60
2019-04-22T05:33:33.199Z,50.90
2019-04-22T05:35:56.332Z,49.90
2019-04-22T05:38:33.267Z,49.30
2019-04-22T05:40:56.378Z,48.80
2019-04-22T05:43:29.421Z,48.30
2019-04-22T05:46:00.775Z,47.30
2019-04-22T05:48:37.342Z,46.60
2019-04-22T05:50:57.711Z,46.30
2019-04-22T05:53:25.867Z,45.50
2019-04-22T05:56:03.959Z,45.50
2019-04-22T05:58:38.122Z,44.20
2019-04-22T06:01:29.347Z,43.10
2019-04-22T06:03:39.437Z,43.60
2019-04-22T06:06:12.620Z,42.80
2019-04-22T06:08:44.371Z,42.00
2019-04-22T06:11:18.451Z,41.80
2019-04-22T06:13:38.831Z,41.00
2019-04-22T06:16:09.212Z,41.00
2019-04-22T06:18:54.891Z,40.00
2019-04-22T06:21:22.562Z,39.70
2019-04-22T06:28:48.168Z,37.60
2019-04-22T06:33:54.775Z,36.80
2019-04-22T06:36:27.521Z,36.90
2019-04-22T06:38:49.937Z,35.90
2019-04-22T06:41:22.894Z,35.30
2019-04-22T06:43:58.467Z,35.20
2019-04-22T06:46:25.690Z,35.40
2019-04-22T06:48:52.752Z,36.30
2019-04-22T06:51:19.879Z,35.50
2019-04-22T06:53:59.080Z,34.60
2019-04-22T06:56:21.975Z,34.20
2019-04-22T06:58:55.142Z,33.60
2019-04-22T07:01:31.838Z,34.20
2019-04-22T07:04:01.538Z,33.00
2019-04-22T07:06:40.141Z,33.10
2019-04-22T07:11:30.727Z,32.00
2019-04-22T07:14:05.543Z,32.40
2019-04-22T07:19:02.187Z,32.50
2019-04-22T07:21:33.498Z,30.00
2019-04-22T07:24:21.480Z,29.90
2019-04-22T07:26:29.121Z,31.00
2019-04-22T07:29:06.216Z,30.00
2019-04-22T07:31:34.130Z,30.60
2019-04-22T07:34:16.422Z,29.30
2019-04-22T07:39:10.830Z,28.90
2019-04-22T07:41:39.978Z,28.50
2019-04-22T07:44:28.088Z,28.60
2019-04-22T07:46:43.055Z,28.80
2019-04-22T07:49:02.133Z,27.90
2019-04-22T07:51:41.102Z,28.00
2019-04-22T07:56:39.910Z,28.40
2019-04-22T07:59:13.859Z,28.50
2019-04-22T08:01:36.644Z,28.00
2019-04-22T08:04:32.112Z,28.50
2019-04-22T08:06:49.403Z,28.60
2019-04-22T08:09:18.111Z,27.40
2019-04-22T08:14:14.473Z,27.50
2019-04-22T08:21:47.396Z,27.20
2019-04-22T08:24:20.185Z,27.90
2019-04-22T08:26:49.787Z,28.40
2019-04-22T08:29:21.673Z,28.00
2019-04-22T08:31:49.187Z,27.80
2019-04-22T08:34:19.556Z,27.60
2019-04-22T08:37:12.249Z,27.10
2019-04-22T08:39:19.918Z,27.40
2019-04-22T08:41:43.532Z,27.30
2019-04-22T08:44:28.017Z,27.70
2019-04-22T08:46:56.178Z,28.80
2019-04-22T08:49:24.548Z,29.00
2019-04-22T08:51:49.441Z,29.60
2019-04-22T08:54:26.070Z,29.60
2019-04-22T08:56:55.535Z,30.20
2019-04-22T08:59:21.766Z,30.00
2019-04-22T09:01:53.452Z,30.20
2019-04-22T09:04:16.202Z,30.60
2019-04-22T09:09:28.444Z,30.60
2019-04-22T09:12:15.806Z,31.00
2019-04-22T09:14:32.431Z,31.10
2019-04-22T09:16:56.381Z,31.30
2019-04-22T09:19:28.428Z,31.50
2019-04-22T09:22:00.564Z,30.70
2019-04-22T09:24:29.665Z,31.20
2019-04-22T09:27:03.978Z,30.20
2019-04-22T09:29:34.147Z,30.00
2019-04-22T09:32:05.603Z,29.70
2019-04-22T09:34:33.684Z,30.00
2019-04-22T09:39:34.286Z,29.80
2019-04-22T09:42:07.902Z,30.10
2019-04-22T09:44:36.270Z,30.70
2019-04-22T09:47:06.183Z,31.30
2019-04-22T09:49:46.806Z,31.80
2019-04-22T09:52:02.967Z,31.60
2019-04-22T09:54:50.961Z,32.40
2019-04-22T09:57:09.220Z,32.50
2019-04-22T09:59:34.829Z,33.20
2019-04-22T10:02:19.600Z,32.50
2019-04-22T10:04:40.502Z,32.40
2019-04-22T10:07:13.847Z,32.00
2019-04-22T10:12:10.301Z,31.60
2019-04-22T10:17:08.837Z,31.80
2019-04-22T10:19:41.135Z,30.80
2019-04-22T10:24:43.209Z,30.10
2019-04-22T10:27:08.031Z,30.50
2019-04-22T10:29:48.478Z,29.90
2019-04-22T10:32:13.966Z,29.70
2019-04-22T10:34:31.281Z,29.90
2019-04-22T10:36:56.880Z,30.00
2019-04-22T10:39:32.845Z,31.00
2019-04-22T10:41:52.777Z,31.50
2019-04-22T10:44:21.542Z,31.80
2019-04-22T10:46:51.861Z,32.60
2019-04-22T10:49:22.291Z,33.00
2019-04-22T10:51:51.530Z,33.30
2019-04-22T10:54:21.346Z,34.00
2019-04-22T10:56:50.782Z,33.80
2019-04-22T10:59:20.620Z,34.00
2019-04-22T11:01:50.621Z,33.50
2019-04-22T11:04:19.647Z,33.00
2019-04-22T11:06:55.558Z,32.90
2019-04-22T11:09:22.090Z,32.60
2019-04-22T11:11:58.433Z,32.10
2019-04-22T11:14:21.068Z,31.90
2019-04-22T11:16:50.081Z,32.80
2019-04-22T11:19:19.435Z,32.40
2019-04-22T11:21:59.979Z,32.30
2019-04-22T11:24:18.916Z,33.30
2019-04-22T11:26:49.225Z,33.80
2019-04-22T11:29:19.565Z,33.00
2019-04-22T11:31:48.620Z,32.70
2019-04-22T11:34:17.408Z,31.00
2019-04-22T11:36:47.226Z,30.70
2019-04-22T11:39:17.009Z,31.50
2019-04-22T11:41:46.410Z,32.60
2019-04-22T11:44:17.055Z,32.20
2019-04-22T11:46:47.350Z,31.90
2019-04-22T11:49:16.416Z,32.20
2019-04-22T11:51:45.743Z,32.30
2019-04-22T11:54:14.781Z,32.10
2019-04-22T11:56:45.122Z,32.00
2019-04-22T11:59:15.075Z,31.30
2019-04-22T12:01:44.617Z,31.80
2019-04-22T12:04:13.829Z,31.50
2019-04-22T12:06:44.070Z,31.90
2019-04-22T12:09:15.359Z,31.00
2019-04-22T12:11:44.589Z,31.50
2019-04-22T12:14:13.956Z,31.90
2019-04-22T12:16:43.647Z,32.20
2019-04-22T12:19:15.658Z,32.20
2019-04-22T12:21:44.918Z,31.80
2019-04-22T12:24:15.058Z,32.00
2019-04-22T12:26:44.284Z,32.20
2019-04-22T12:29:13.335Z,32.50
2019-04-22T12:31:42.341Z,32.10
2019-04-22T12:34:11.366Z,31.90
2019-04-22T12:36:40.464Z,32.40
2019-04-22T12:39:11.435Z,32.60
2019-04-22T12:41:40.575Z,33.00
2019-04-22T12:44:09.654Z,34.40
2019-04-22T12:46:42.068Z,34.40
2019-04-22T12:49:12.194Z,35.20
2019-04-22T12:51:42.874Z,35.10
2019-04-22T12:54:13.132Z,35.70
2019-04-22T12:56:43.827Z,35.80
2019-04-22T12:59:13.997Z,35.10
2019-04-22T13:01:44.658Z,35.00
2019-04-22T13:04:17.273Z,35.00
2019-04-22T13:06:45.867Z,35.30
2019-04-22T13:09:17.614Z,35.20
2019-04-22T13:11:45.994Z,35.10
2019-04-22T13:14:15.067Z,35.00
2019-04-22T13:16:44.920Z,34.70
2019-04-22T13:19:17.104Z,34.90
2019-04-22T13:21:44.870Z,34.30
2019-04-22T13:24:15.349Z,32.60
2019-04-22T13:26:45.240Z,32.00
2019-04-22T13:29:15.064Z,31.40
2019-04-22T13:31:44.794Z,30.70
2019-04-22T13:34:21.396Z,30.40
2019-04-22T13:36:48.834Z,30.10
2019-04-22T13:39:20.879Z,30.50
2019-04-22T13:41:54.562Z,29.90
2019-04-22T13:44:21.057Z,30.00
2019-04-22T13:47:10.406Z,30.10
2019-04-22T13:49:49.469Z,30.60
2019-04-22T13:52:35.275Z,30.70
2019-04-22T13:57:14.822Z,30.50
2019-04-22T13:59:32.206Z,30.60
2019-04-22T14:02:24.324Z,30.70
2019-04-22T14:04:48.926Z,31.20
2019-04-22T14:07:19.002Z,31.10
2019-04-22T14:09:48.619Z,31.20
2019-04-22T14:12:18.377Z,31.50
2019-04-22T14:14:50.530Z,32.00
2019-04-22T14:17:18.888Z,31.70
2019-04-22T14:19:48.539Z,31.70
2019-04-22T14:22:17.932Z,32.00
2019-04-22T14:24:46.943Z,32.20
2019-04-22T14:27:28.022Z,32.10
2019-04-22T14:29:49.319Z,32.70
2019-04-22T14:34:49.038Z,32.90
2019-04-22T14:37:18.618Z,32.90
2019-04-22T14:39:48.197Z,33.10
2019-04-22T14:42:34.368Z,33.10
2019-04-22T14:44:12.632Z,33.00
2019-04-22T14:47:49.263Z,33.70
2019-04-22T14:50:14.475Z,33.40
2019-04-22T14:52:39.537Z,33.70
2019-04-22T14:55:02.885Z,34.20
2019-04-22T14:57:23.258Z,34.30
2019-04-22T14:59:53.613Z,34.70
2019-04-22T15:02:23.670Z,35.20
2019-04-22T15:04:54.229Z,35.50
2019-04-22T15:07:23.383Z,36.00
2019-04-22T15:09:52.792Z,35.50
2019-04-22T15:12:31.264Z,35.30
2019-04-22T15:14:53.398Z,35.40
2019-04-22T15:17:29.174Z,35.60
2019-04-22T15:20:03.701Z,35.10
2019-04-22T15:22:32.852Z,35.30
2019-04-22T15:25:02.982Z,35.50
2019-04-22T15:27:33.164Z,35.70
2019-04-22T15:30:03.526Z,35.80
2019-04-22T15:32:33.515Z,35.50
2019-04-22T15:35:02.753Z,35.20
2019-04-22T15:37:33.083Z,35.30
2019-04-22T15:40:02.877Z,35.40
2019-04-22T15:42:36.134Z,35.60
2019-04-22T15:45:05.340Z,35.60
2019-04-22T15:47:34.751Z,35.90
2019-04-22T15:50:05.970Z,36.40
2019-04-22T15:52:41.987Z,36.40
2019-04-22T15:55:06.743Z,37.00
2019-04-22T15:57:37.882Z,36.70
2019-04-22T16:00:22.385Z,36.90
2019-04-22T16:02:37.559Z,36.70
2019-04-22T16:05:06.805Z,36.60
2019-04-22T16:07:36.047Z,36.50
2019-04-22T16:10:05.941Z,36.80
2019-04-22T16:12:46.471Z,36.80
2019-04-22T16:15:09.567Z,36.90
2019-04-22T16:17:38.459Z,37.20
2019-04-22T16:20:09.017Z,38.20
2019-04-22T16:22:57.126Z,37.40
2019-04-22T16:25:45.494Z,36.50
2019-04-22T16:28:17.761Z,36.10
2019-04-22T16:30:46.813Z,36.60
2019-04-22T16:33:17.447Z,37.00
2019-04-22T16:35:48.959Z,37.60
2019-04-22T16:38:19.453Z,37.60
2019-04-22T16:40:52.627Z,37.30
2019-04-22T16:43:22.561Z,37.50
2019-04-22T16:45:51.961Z,37.10
2019-04-22T16:48:21.927Z,37.50
2019-04-22T16:50:52.813Z,37.60
2019-04-22T16:53:23.221Z,37.80
2019-04-22T16:55:52.977Z,36.90
2019-04-22T16:58:23.172Z,34.90
2019-04-22T17:00:52.506Z,33.80
2019-04-22T17:03:30.799Z,33.30
2019-04-22T17:06:23.404Z,33.30
2019-04-22T17:08:52.862Z,33.80
2019-04-22T17:11:22.258Z,34.40
2019-04-22T17:13:51.318Z,35.00
2019-04-22T17:16:20.560Z,36.10
2019-04-22T17:18:50.059Z,36.00
2019-04-22T17:21:19.675Z,36.40
2019-04-22T17:23:49.833Z,36.80
2019-04-22T17:26:19.064Z,36.80
2019-04-22T17:28:49.319Z,37.00
2019-04-22T17:31:18.879Z,37.20
2019-04-22T17:33:48.837Z,37.70
2019-04-22T17:36:18.537Z,37.20
2019-04-22T17:38:56.410Z,37.90
2019-04-22T17:41:30.267Z,38.30
2019-04-22T17:44:14.456Z,38.40
2019-04-22T17:46:40.275Z,38.70
2019-04-22T17:49:21.872Z,39.50
2019-04-22T17:52:10.792Z,39.30
2019-04-22T17:54:43.449Z,39.50
2019-04-22T17:57:10.005Z,39.20
2019-04-22T17:59:41.797Z,39.30
2019-04-22T18:02:13.350Z,38.80
2019-04-22T18:04:25.384Z,39.10
2019-04-22T18:07:24.553Z,39.40
2019-04-22T18:10:16.461Z,39.40
2019-04-22T18:12:27.119Z,39.70
2019-04-22T18:14:57.685Z,39.50
2019-04-22T18:17:17.339Z,39.50
2019-04-22T18:19:47.707Z,39.70
2019-04-22T18:22:13.620Z,39.50
2019-04-22T18:24:46.401Z,39.70
2019-04-22T18:27:34.727Z,39.90
2019-04-22T18:29:48.577Z,40.30
2019-04-22T18:32:16.801Z,40.30
2019-04-22T18:34:44.555Z,40.30
2019-04-22T18:37:22.328Z,40.40
2019-04-22T18:40:02.114Z,41.00
2019-04-22T18:42:25.669Z,41.40
2019-04-22T18:45:23.333Z,41.00
2019-04-22T18:47:37.156Z,41.00
2019-04-22T18:50:03.325Z,41.20
2019-04-22T18:53:07.094Z,41.30
2019-04-22T18:55:48.980Z,41.70
2019-04-22T18:58:21.443Z,41.60
2019-04-22T19:00:37.778Z,42.40
2019-04-22T19:03:16.487Z,42.50
2019-04-22T19:06:03.517Z,43.10
2019-04-22T19:08:34.626Z,43.40
2019-04-22T19:11:08.279Z,43.30
2019-04-22T19:18:41.532Z,44.30
2019-04-22T19:21:25.268Z,44.70
2019-04-22T19:23:59.765Z,45.30
2019-04-22T19:26:49.983Z,45.10
2019-04-22T19:29:25.978Z,45.90
2019-04-22T19:31:52.364Z,45.50
2019-04-22T19:34:20.488Z,46.00
2019-04-22T19:37:00.084Z,46.60
2019-04-22T19:39:26.190Z,46.80
2019-04-22T19:42:09.558Z,47.30
2019-04-22T19:44:41.178Z,47.50
2019-04-22T19:47:28.522Z,47.50
2019-04-22T19:49:48.078Z,47.30
2019-04-22T19:54:43.941Z,48.00
2019-04-22T19:57:08.159Z,48.20
2019-04-22T20:00:18.489Z,48.10
2019-04-22T20:03:15.731Z,48.30
2019-04-22T20:05:50.857Z,48.80
2019-04-22T20:08:21.502Z,48.60
2019-04-22T20:10:58.957Z,48.90
2019-04-22T20:13:37.250Z,48.70
2019-04-22T20:15:58.361Z,49.20
2019-04-22T20:21:18.262Z,49.30
2019-04-22T20:23:37.221Z,49.70
2019-04-22T20:26:13.604Z,50.10
2019-04-22T20:28:49.203Z,50.30
2019-04-22T20:31:24.649Z,49.90
2019-04-22T20:34:03.463Z,50.40
2019-04-22T20:36:49.089Z,50.40
2019-04-22T20:38:53.617Z,50.10
2019-04-22T20:41:24.959Z,50.80
2019-04-22T20:44:06.566Z,51.40
2019-04-22T20:46:36.238Z,50.80
2019-04-22T20:49:07.729Z,51.30
2019-04-22T20:51:50.224Z,51.30
2019-04-22T20:54:11.989Z,52.40
2019-04-22T20:56:44.072Z,51.60
2019-04-22T20:59:24.056Z,53.10
2019-04-22T21:01:55.202Z,52.70
2019-04-22T21:04:19.594Z,53.40
2019-04-22T21:06:58.323Z,54.20
2019-04-22T21:09:35.421Z,54.00
2019-04-22T21:11:59.110Z,54.60
2019-04-22T21:14:28.631Z,54.30
2019-04-22T21:17:09.616Z,54.30
2019-04-22T21:19:41.407Z,55.00
2019-04-22T21:22:16.466Z,55.70
2019-04-22T21:24:42.150Z,55.70
2019-04-22T21:27:13.981Z,55.70
2019-04-22T21:29:38.766Z,56.20
2019-04-22T21:32:15.944Z,56.30
2019-04-22T21:34:59.639Z,56.00
2019-04-22T21:37:25.080Z,56.20
2019-04-22T21:39:46.307Z,56.20
2019-04-22T21:42:22.570Z,56.70
2019-04-22T21:44:51.151Z,54.90
2019-04-22T21:47:50.166Z,57.50
2019-04-22T21:50:19.660Z,57.40
2019-04-22T21:52:27.608Z,57.40
2019-04-22T21:55:07.538Z,57.60
2019-04-22T21:57:46.159Z,56.50
2019-04-22T22:00:25.131Z,57.20
2019-04-22T22:02:45.635Z,56.50
2019-04-22T22:05:12.527Z,58.30
2019-04-22T22:07:32.872Z,57.80
2019-04-22T22:10:22.866Z,58.10
2019-04-22T22:12:56.877Z,58.60
2019-04-22T22:15:25.862Z,57.90
2019-04-22T22:17:54.498Z,57.90
2019-04-22T22:20:22.704Z,57.60
2019-04-22T22:23:09.126Z,58.30
2019-04-22T22:25:35.016Z,58.20
2019-04-22T22:28:17.043Z,58.10
2019-04-22T22:33:15.384Z,59.00
2019-04-22T22:35:45.564Z,58.90
2019-04-22T22:38:20.574Z,59.00
2019-04-22T22:40:30.617Z,58.60
2019-04-22T22:43:05.416Z,59.60
2019-04-22T22:45:39.277Z,59.10
2019-04-22T22:48:28.183Z,59.90
2019-04-22T22:50:50.794Z,59.70
2019-04-22T22:55:50.654Z,59.40
2019-04-22T22:58:29.215Z,61.10
2019-04-22T23:00:53.577Z,61.10
2019-04-22T23:03:49.817Z,60.40
2019-04-22T23:06:03.225Z,60.60
2019-04-22T23:08:31.122Z,60.90
2019-04-22T23:11:27.388Z,60.70
2019-04-22T23:13:49.491Z,61.40
2019-04-22T23:15:57.273Z,61.90
2019-04-22T23:18:14.012Z,62.40
2019-04-22T23:20:47.661Z,60.90
2019-04-22T23:23:33.224Z,62.70
2019-04-22T23:26:17.177Z,62.10
2019-04-22T23:28:53.523Z,62.80
2019-04-22T23:31:23.627Z,61.40
2019-04-22T23:34:01.052Z,62.20
2019-04-22T23:37:11.837Z,62.70
2019-04-22T23:39:56.461Z,63.60
2019-04-22T23:44:49.623Z,62.10
2019-04-22T23:47:30.955Z,63.10
2019-04-22T23:50:09.105Z,61.90
2019-04-22T23:52:58.854Z,61.60
2019-04-22T23:55:38.411Z,61.80
2019-04-22T23:58:11.929Z,61.50
